createdAt,value
2022-11-14T00:02:13.339Z,4.98
2022-11-14T00:05:40.152Z,4.97
2022-11-14T00:09:01.614Z,5.13
2022-11-14T00:12:23.273Z,5.21
2022-11-14T00:15:45.969Z,5.07
2022-11-14T00:19:06.792Z,5.04
2022-11-14T00:22:27.650Z,4.96
2022-11-14T00:25:49.247Z,4.90
2022-11-14T00:29:15.124Z,4.79
2022-11-14T00:32:35.876Z,4.87
2022-11-14T00:35:57.237Z,4.77
2022-11-14T00:39:18.345Z,4.84
2022-11-14T00:42:39.597Z,4.85
2022-11-14T00:46:00.837Z,4.89
2022-11-14T00:49:22.371Z,4.89
2022-11-14T00:52:43.424Z,4.92
2022-11-14T00:56:05.494Z,4.99
2022-11-14T00:59:26.339Z,4.84
2022-11-14T01:02:47.501Z,4.88
2022-11-14T01:06:11.347Z,4.78
2022-11-14T01:09:33.248Z,4.62
2022-11-14T01:12:54.426Z,4.50
2022-11-14T01:16:16.060Z,4.65
2022-11-14T01:19:37.314Z,4.44
2022-11-14T01:22:58.405Z,4.42
2022-11-14T01:26:19.348Z,4.27
2022-11-14T01:29:40.667Z,4.25
2022-11-14T01:33:04.230Z,4.15
2022-11-14T01:36:25.280Z,4.21
2022-11-14T01:39:47.246Z,4.17
2022-11-14T01:43:11.620Z,4.18
2022-11-14T01:46:37.372Z,4.21
2022-11-14T01:50:01.848Z,4.19
2022-11-14T01:53:23.665Z,4.31
2022-11-14T01:56:49.257Z,4.30
2022-11-14T02:00:12.621Z,4.21
2022-11-14T02:03:38.301Z,4.23
2022-11-14T02:07:02.625Z,4.26
2022-11-14T02:10:24.146Z,4.28
2022-11-14T02:13:45.505Z,4.32
2022-11-14T02:20:47.876Z,4.40
2022-11-14T02:24:11.421Z,4.43
2022-11-14T02:27:34.013Z,4.38
2022-11-14T02:30:55.866Z,4.41
2022-11-14T02:34:20.038Z,4.51
2022-11-14T02:37:41.358Z,4.54
2022-11-14T02:41:02.736Z,4.73
2022-11-14T02:44:24.009Z,4.57
2022-11-14T02:47:44.674Z,4.53
2022-11-14T02:51:06.018Z,4.50
2022-11-14T02:54:26.977Z,4.61
2022-11-14T02:57:48.226Z,4.81
2022-11-14T03:01:24.637Z,4.76
2022-11-14T03:04:45.740Z,4.81
2022-11-14T03:08:06.765Z,4.70
2022-11-14T03:11:28.235Z,4.63
2022-11-14T03:14:49.540Z,4.67
2022-11-14T03:18:10.602Z,4.84
2022-11-14T03:21:32.002Z,4.97
2022-11-14T03:24:53.721Z,4.89
2022-11-14T03:28:15.152Z,4.95
2022-11-14T03:31:36.210Z,4.96
2022-11-14T03:34:57.194Z,4.95
2022-11-14T03:38:19.912Z,4.86
2022-11-14T03:41:41.113Z,4.79
2022-11-14T03:45:02.617Z,4.91
2022-11-14T03:48:23.603Z,4.76
2022-11-14T03:51:44.861Z,4.74
2022-11-14T03:55:06.338Z,4.79
2022-11-14T03:58:28.089Z,4.91
2022-11-14T04:01:49.525Z,4.82
2022-11-14T04:05:10.769Z,4.78
2022-11-14T04:08:32.137Z,4.99
2022-11-14T04:11:53.262Z,4.83
2022-11-14T04:15:14.639Z,4.84
2022-11-14T04:18:35.584Z,4.83
2022-11-14T04:21:56.865Z,4.80
2022-11-14T04:25:18.284Z,4.83
2022-11-14T04:28:39.359Z,4.88
2022-11-14T04:32:00.688Z,4.87
2022-11-14T04:35:21.745Z,4.88
2022-11-14T04:38:42.969Z,4.84
2022-11-14T04:42:04.194Z,4.86
2022-11-14T04:45:25.387Z,4.88
2022-11-14T04:48:46.899Z,5.01
2022-11-14T04:52:08.159Z,5.07
2022-11-14T04:55:29.483Z,5.10
2022-11-14T04:58:50.473Z,5.08
2022-11-14T05:02:11.588Z,5.03
2022-11-14T05:05:32.675Z,5.11
2022-11-14T05:08:53.499Z,5.02
2022-11-14T05:12:14.626Z,5.16
2022-11-14T05:15:36.158Z,5.21
2022-11-14T05:18:57.356Z,5.21
2022-11-14T05:22:18.983Z,5.16
2022-11-14T05:25:40.168Z,5.13
2022-11-14T05:29:01.177Z,5.06
2022-11-14T05:32:22.486Z,5.05
2022-11-14T05:35:43.411Z,5.02
2022-11-14T05:39:04.472Z,4.97
2022-11-14T05:42:27.594Z,4.99
2022-11-14T05:45:48.521Z,5.03
2022-11-14T05:49:09.727Z,4.98
2022-11-14T05:52:31.702Z,5.09
2022-11-14T05:55:53.251Z,5.13
2022-11-14T05:59:14.580Z,4.99
2022-11-14T06:02:35.688Z,5.04
2022-11-14T06:05:56.416Z,5.01
2022-11-14T06:09:17.308Z,5.00
2022-11-14T06:12:38.521Z,5.04
2022-11-14T06:16:05.407Z,5.14
2022-11-14T06:19:26.220Z,5.22
2022-11-14T06:22:47.301Z,5.26
2022-11-14T06:26:17.591Z,5.23
2022-11-14T06:29:38.351Z,5.16
2022-11-14T06:32:59.358Z,5.05
2022-11-14T06:36:42.261Z,4.97
2022-11-14T06:40:03.221Z,5.06
2022-11-14T06:43:25.245Z,5.07
2022-11-14T06:46:46.556Z,5.07
2022-11-14T06:50:08.804Z,5.17
2022-11-14T06:53:32.113Z,5.04
2022-11-14T06:56:53.394Z,5.24
2022-11-14T07:00:15.180Z,5.14
2022-11-14T07:03:36.799Z,5.28
2022-11-14T07:06:57.747Z,5.30
2022-11-14T07:10:19.068Z,5.29
2022-11-14T07:13:42.900Z,5.41
2022-11-14T07:17:03.674Z,5.39
2022-11-14T07:20:25.169Z,5.40
2022-11-14T07:23:46.523Z,5.38
2022-11-14T07:27:11.093Z,5.41
2022-11-14T07:30:37.341Z,5.21
2022-11-14T07:33:58.329Z,5.40
2022-11-14T07:37:19.448Z,5.46
2022-11-14T07:40:40.685Z,5.61
2022-11-14T07:44:02.046Z,5.59
2022-11-14T07:47:23.011Z,5.62
2022-11-14T07:50:44.770Z,5.56
2022-11-14T07:54:05.846Z,5.63
2022-11-14T07:57:26.783Z,5.64
2022-11-14T08:00:48.048Z,5.52
2022-11-14T08:04:09.153Z,5.73
2022-11-14T08:07:30.355Z,5.79
2022-11-14T08:10:51.584Z,5.84
2022-11-14T08:14:12.753Z,5.79
2022-11-14T08:17:34.510Z,5.82
2022-11-14T08:54:07.559Z,5.70
2022-11-14T08:57:28.581Z,5.44
2022-11-14T09:00:52.033Z,5.95
2022-11-14T09:04:18.043Z,6.29
2022-11-14T09:07:42.313Z,6.10
2022-11-14T09:11:09.233Z,5.95
2022-11-14T09:14:31.202Z,6.09
2022-11-14T09:17:56.606Z,6.08
2022-11-14T09:21:17.675Z,6.15
2022-11-14T09:24:38.700Z,6.19
2022-11-14T09:28:05.671Z,5.46
2022-11-14T09:31:26.685Z,5.53
2022-11-14T09:34:48.174Z,5.95
2022-11-14T09:38:11.489Z,5.84
2022-11-14T09:42:10.776Z,5.57
2022-11-14T09:45:40.745Z,6.08
2022-11-14T09:49:02.128Z,6.05
2022-11-14T09:52:37.512Z,6.20
2022-11-14T09:55:59.111Z,6.27
2022-11-14T09:59:20.209Z,6.09
2022-11-14T10:03:29.827Z,6.07
2022-11-14T10:07:14.061Z,6.35
2022-11-14T10:10:43.747Z,6.20
2022-11-14T10:14:36.324Z,6.09
2022-11-14T10:18:04.525Z,6.05
2022-11-14T10:21:37.589Z,6.11
2022-11-14T10:25:01.509Z,6.34
2022-11-14T10:28:53.858Z,6.34
2022-11-14T10:32:20.206Z,6.42
2022-11-14T10:35:46.060Z,6.48
2022-11-14T10:39:29.665Z,6.53
2022-11-14T10:43:30.164Z,6.59
2022-11-14T10:46:57.045Z,6.56
2022-11-14T10:50:21.051Z,6.77
2022-11-14T11:12:25.780Z,6.53
2022-11-14T11:15:56.873Z,6.48
2022-11-14T11:19:17.821Z,6.29
2022-11-14T11:22:39.114Z,6.53
2022-11-14T11:26:15.901Z,6.66
2022-11-14T11:29:37.145Z,6.67
2022-11-14T11:33:15.867Z,6.85
2022-11-14T11:36:43.927Z,6.92
2022-11-14T11:40:13.672Z,6.80
2022-11-14T11:43:55.522Z,6.95
2022-11-14T11:47:19.194Z,7.18
2022-11-14T11:50:43.055Z,7.25
2022-11-14T11:54:12.112Z,7.02
2022-11-14T11:57:42.788Z,6.91
2022-11-14T12:01:05.796Z,6.94
2022-11-14T12:04:27.031Z,6.85
2022-11-14T12:08:01.687Z,7.03
2022-11-14T12:11:27.182Z,7.07
2022-11-14T12:15:00.265Z,7.27
2022-11-14T12:18:26.804Z,6.93
2022-11-14T12:22:13.087Z,6.77
2022-11-14T12:25:46.306Z,6.92
2022-11-14T12:29:25.913Z,6.66
2022-11-14T12:33:02.839Z,6.88
2022-11-14T12:36:31.157Z,7.32
2022-11-14T12:40:05.038Z,7.33
2022-11-14T12:43:36.374Z,7.31
2022-11-14T12:47:05.022Z,7.47
2022-11-14T12:50:40.866Z,7.53
2022-11-14T12:54:02.584Z,7.79
2022-11-14T12:57:48.065Z,7.65
2022-11-14T13:01:28.305Z,7.45
2022-11-14T13:04:56.458Z,7.35
2022-11-14T13:08:45.371Z,7.11
2022-11-14T13:12:46.808Z,7.24
2022-11-14T13:16:41.999Z,7.33
2022-11-14T13:20:49.191Z,7.17
2022-11-14T13:24:11.914Z,6.89
2022-11-14T13:28:05.905Z,6.97
2022-11-14T13:31:31.642Z,6.74
2022-11-14T13:34:55.009Z,6.91
2022-11-14T13:39:02.407Z,6.73
2022-11-14T13:42:23.699Z,6.64
2022-11-14T13:45:44.976Z,6.60
2022-11-14T13:49:36.899Z,6.74
2022-11-14T13:52:59.398Z,6.59
2022-11-14T13:56:37.059Z,6.64
2022-11-14T14:00:18.440Z,6.73
2022-11-14T14:03:56.598Z,6.56
2022-11-14T14:07:27.405Z,6.49
2022-11-14T14:11:04.210Z,6.42
2022-11-14T14:14:55.713Z,6.50
2022-11-14T14:18:33.655Z,6.44
2022-11-14T14:22:15.767Z,6.16
2022-11-14T14:26:03.443Z,5.96
2022-11-14T14:29:47.497Z,5.94
2022-11-14T14:33:08.836Z,5.77
2022-11-14T14:36:30.573Z,5.84
2022-11-14T14:40:04.257Z,5.77
2022-11-14T14:43:33.541Z,5.77
2022-11-14T14:46:55.498Z,5.49
2022-11-14T14:50:23.648Z,5.68
2022-11-14T14:53:52.953Z,5.43
2022-11-14T14:57:22.538Z,5.78
2022-11-14T15:01:13.422Z,5.34
2022-11-14T15:04:55.893Z,5.27
2022-11-14T15:08:17.639Z,5.31
2022-11-14T15:11:43.257Z,5.27
2022-11-14T15:15:12.114Z,5.18
2022-11-14T15:18:40.932Z,5.29
2022-11-14T15:22:20.007Z,5.23
2022-11-14T15:25:42.577Z,5.47
2022-11-14T15:29:16.754Z,5.13
2022-11-14T15:32:37.833Z,5.08
2022-11-14T15:36:11.070Z,5.56
2022-11-14T15:39:32.636Z,5.24
2022-11-14T15:42:54.122Z,5.41
2022-11-14T15:46:33.491Z,5.22
2022-11-14T15:50:00.613Z,5.09
2022-11-14T15:53:30.392Z,5.02
2022-11-14T15:56:53.018Z,5.14
2022-11-14T16:00:15.950Z,4.82
2022-11-14T16:03:37.368Z,4.82
2022-11-14T16:06:58.534Z,5.00
2022-11-14T16:10:26.195Z,4.94
2022-11-14T16:13:47.065Z,4.88
2022-11-14T16:17:16.354Z,4.90
2022-11-14T16:20:41.877Z,5.07
2022-11-14T16:24:03.189Z,5.02
2022-11-14T16:27:24.519Z,5.07
2022-11-14T16:30:45.901Z,4.94
2022-11-14T16:34:08.179Z,5.50
2022-11-14T16:37:29.233Z,4.97
2022-11-14T16:40:50.646Z,4.95
2022-11-14T16:44:19.252Z,4.97
2022-11-14T16:47:40.733Z,4.88
2022-11-14T16:51:14.849Z,4.94
2022-11-14T16:54:41.565Z,5.03
2022-11-14T16:58:02.460Z,5.10
2022-11-14T17:01:24.022Z,4.86
2022-11-14T17:04:45.563Z,4.83
2022-11-14T17:08:06.565Z,4.78
2022-11-14T17:11:28.416Z,4.59
2022-11-14T17:14:49.664Z,4.75
2022-11-14T17:18:11.134Z,5.04
2022-11-14T17:21:32.792Z,4.73
2022-11-14T17:24:54.029Z,4.91
2022-11-14T17:28:15.276Z,4.94
2022-11-14T17:31:38.437Z,5.08
2022-11-14T17:35:01.418Z,4.60
2022-11-14T17:38:23.068Z,4.51
2022-11-14T17:41:44.374Z,4.53
2022-11-14T17:45:05.901Z,4.60
2022-11-14T17:48:27.351Z,4.57
2022-11-14T17:51:48.686Z,4.65
2022-11-14T17:55:09.833Z,4.64
2022-11-14T17:58:32.591Z,4.64
2022-11-14T18:01:55.961Z,4.66
2022-11-14T18:05:17.147Z,4.66
2022-11-14T18:08:38.817Z,4.70
2022-11-14T18:12:00.110Z,4.74
2022-11-14T18:15:26.607Z,4.70
2022-11-14T18:18:48.818Z,4.84
2022-11-14T18:22:10.122Z,4.84
2022-11-14T18:25:31.618Z,4.79
2022-11-14T18:28:56.772Z,4.86
2022-11-14T18:32:18.358Z,4.81
2022-11-14T18:35:39.245Z,4.95
2022-11-14T18:39:00.323Z,4.84
2022-11-14T18:42:24.096Z,4.87
2022-11-14T18:45:45.213Z,4.77
2022-11-14T18:49:06.346Z,4.70
2022-11-14T18:52:27.620Z,4.83
2022-11-14T18:55:53.111Z,4.90
2022-11-14T18:59:14.896Z,4.87
2022-11-14T19:02:36.213Z,4.78
2022-11-14T19:06:02.314Z,4.71
2022-11-14T19:09:23.797Z,4.72
2022-11-14T19:12:48.517Z,4.57
2022-11-14T19:16:09.946Z,4.61
2022-11-14T19:19:31.090Z,4.88
2022-11-14T19:22:52.326Z,5.07
2022-11-14T19:26:13.551Z,4.74
2022-11-14T19:29:35.041Z,4.83
2022-11-14T19:32:56.158Z,4.58
2022-11-14T19:36:52.782Z,4.57
2022-11-14T19:40:04.020Z,4.40
2022-11-14T19:43:26.085Z,4.41
2022-11-14T19:46:48.188Z,4.27
2022-11-14T19:50:09.979Z,4.53
2022-11-14T19:53:31.567Z,4.37
2022-11-14T19:56:53.071Z,4.26
2022-11-14T20:00:15.222Z,4.16
2022-11-14T20:03:36.360Z,3.87
2022-11-14T20:06:57.423Z,3.86
2022-11-14T20:10:18.944Z,3.70
2022-11-14T20:13:42.448Z,3.79
2022-11-14T20:17:03.455Z,3.93
2022-11-14T20:20:25.177Z,3.91
2022-11-14T20:23:46.747Z,3.83
2022-11-14T20:27:08.102Z,3.78
2022-11-14T20:30:31.907Z,3.78
2022-11-14T20:33:54.473Z,3.79
2022-11-14T20:37:20.776Z,3.79
2022-11-14T20:40:43.953Z,3.72
2022-11-14T20:44:05.240Z,3.63
2022-11-14T20:47:27.565Z,3.74
2022-11-14T20:50:48.447Z,3.75
2022-11-14T20:54:09.769Z,3.87
2022-11-14T20:57:31.125Z,3.76
2022-11-14T21:00:53.048Z,3.50
2022-11-14T21:04:14.071Z,3.56
2022-11-14T21:07:35.445Z,3.52
2022-11-14T21:11:00.663Z,3.37
2022-11-14T21:14:22.383Z,3.38
2022-11-14T21:17:43.498Z,3.43
2022-11-14T21:21:10.500Z,3.33
2022-11-14T21:24:34.500Z,3.37
2022-11-14T21:27:57.910Z,3.23
2022-11-14T21:31:31.669Z,3.15
2022-11-14T21:34:52.777Z,3.21
2022-11-14T21:38:13.798Z,3.18
2022-11-14T21:41:35.058Z,3.17
2022-11-14T21:44:56.242Z,3.37
2022-11-14T21:48:17.482Z,3.36
2022-11-14T21:51:38.829Z,3.35
2022-11-14T21:54:59.985Z,3.38
2022-11-14T21:58:21.427Z,3.48
2022-11-14T22:02:06.719Z,3.37
2022-11-14T22:05:27.743Z,3.42
2022-11-14T22:08:53.192Z,3.47
2022-11-14T22:12:14.485Z,3.58
2022-11-14T22:15:36.057Z,3.67
2022-11-14T22:19:04.502Z,3.77
2022-11-14T22:22:25.553Z,3.67
2022-11-14T22:25:56.750Z,3.63
2022-11-14T22:29:18.332Z,3.58
2022-11-14T22:32:39.624Z,3.65
2022-11-14T22:36:02.489Z,3.62
2022-11-14T22:39:23.647Z,3.58
2022-11-14T22:42:44.822Z,3.54
2022-11-14T22:46:06.573Z,3.65
2022-11-14T22:49:27.656Z,3.56
2022-11-14T22:52:48.874Z,3.45
2022-11-14T22:56:11.266Z,3.47
2022-11-14T22:59:32.509Z,3.54
2022-11-14T23:02:53.840Z,3.50
2022-11-14T23:06:18.627Z,3.63
2022-11-14T23:09:39.706Z,3.57
2022-11-14T23:13:00.944Z,3.69
2022-11-14T23:16:25.112Z,3.62
2022-11-14T23:19:46.401Z,3.79
2022-11-14T23:23:07.737Z,3.62
2022-11-14T23:26:30.898Z,3.73
2022-11-14T23:29:51.763Z,3.70
2022-11-14T23:33:12.684Z,3.79
2022-11-14T23:36:33.950Z,3.47
2022-11-14T23:39:55.251Z,3.53
2022-11-14T23:43:16.866Z,3.55
2022-11-14T23:46:37.909Z,3.49
2022-11-14T23:49:59.193Z,3.52
2022-11-14T23:53:20.951Z,3.66
2022-11-14T23:56:41.850Z,3.67
